createdAt,value
2023-02-12T00:01:10.154Z,103777.78
2023-02-12T00:03:39.834Z,103776.94
2023-02-12T00:06:08.256Z,103776.94
2023-02-12T00:08:36.182Z,103778.78
2023-02-12T00:11:09.558Z,103777.09
2023-02-12T00:13:38.337Z,103774.41
2023-02-12T00:16:08.196Z,103787.81
2023-02-12T00:18:35.997Z,103778.06
2023-02-12T00:21:05.823Z,103786.13
2023-02-12T00:23:33.824Z,103784.41
2023-02-12T00:26:01.693Z,103788.09
2023-02-12T00:28:29.462Z,103781.03
2023-02-12T00:30:57.353Z,103782.72
2023-02-12T00:33:25.190Z,103785.41
2023-02-12T00:35:57.394Z,103786.41
2023-02-12T00:38:26.517Z,103787.38
2023-02-12T00:40:54.265Z,103790.06
2023-02-12T00:43:22.112Z,103783.00
2023-02-12T00:45:50.066Z,103785.81
2023-02-12T00:48:17.798Z,103789.50
2023-02-12T00:50:47.074Z,103784.00
2023-02-12T00:53:14.889Z,103783.16
2023-02-12T00:55:44.471Z,103785.97
2023-02-12T00:58:12.847Z,103791.19
2023-02-12T01:00:40.639Z,103787.66
2023-02-12T01:03:08.344Z,103791.34
2023-02-12T01:05:36.935Z,103777.06
2023-02-12T01:08:05.693Z,103792.31
2023-02-12T01:10:33.533Z,103788.78
2023-02-12T01:13:02.592Z,103787.94
2023-02-12T01:15:30.397Z,103783.56
2023-02-12T01:17:58.163Z,103781.72
2023-02-12T01:20:27.074Z,103787.09
2023-02-12T01:22:54.874Z,103783.56
2023-02-12T01:25:22.685Z,103777.34
2023-02-12T01:27:50.357Z,103783.69
2023-02-12T01:30:22.160Z,103782.72
2023-02-12T01:32:49.936Z,103795.28
2023-02-12T01:35:17.792Z,103789.91
2023-02-12T01:37:45.513Z,103788.34
2023-02-12T01:40:16.732Z,103774.94
2023-02-12T01:42:44.458Z,103780.44
2023-02-12T01:45:46.499Z,103771.41
2023-02-12T01:48:16.512Z,103774.09
2023-02-12T01:50:47.011Z,103768.03
2023-02-12T01:53:20.089Z,103763.38
2023-02-12T01:55:54.400Z,103759.72
2023-02-12T01:58:23.575Z,103762.38
2023-02-12T02:00:53.063Z,103759.72
2023-02-12T02:03:20.930Z,103760.84
2023-02-12T02:05:55.835Z,103758.16
2023-02-12T02:08:24.549Z,103761.69
2023-02-12T02:10:52.538Z,103757.16
2023-02-12T02:13:38.189Z,103754.47
2023-02-12T02:16:16.872Z,103756.31
2023-02-12T02:18:54.326Z,103759.00
2023-02-12T02:21:53.478Z,103761.69
2023-02-12T02:25:03.378Z,103759.84
2023-02-12T02:27:43.174Z,103763.50
2023-02-12T02:30:45.320Z,103768.44
2023-02-12T02:33:37.271Z,103771.00
2023-02-12T02:36:15.688Z,103765.50
2023-02-12T02:38:47.998Z,103769.16
2023-02-12T02:41:22.597Z,103767.31
2023-02-12T02:43:52.139Z,103762.66
2023-02-12T02:46:28.943Z,103766.34
2023-02-12T02:48:59.409Z,103767.31
2023-02-12T02:51:31.703Z,103762.81
2023-02-12T02:54:06.431Z,103770.00
2023-02-12T02:56:37.983Z,103763.78
2023-02-12T02:59:11.209Z,103762.94
2023-02-12T03:01:45.624Z,103766.47
2023-02-12T03:04:20.635Z,103762.94
2023-02-12T03:06:55.640Z,103756.72
2023-02-12T03:09:27.149Z,103756.72
2023-02-12T03:11:58.971Z,103762.94
2023-02-12T03:14:30.731Z,103758.56
2023-02-12T03:17:04.100Z,103752.34
2023-02-12T03:19:36.336Z,103742.75
2023-02-12T03:22:08.427Z,103760.53
2023-02-12T03:24:41.265Z,103751.50
2023-02-12T03:27:14.153Z,103753.75
2023-02-12T03:29:41.857Z,103753.47
2023-02-12T03:32:25.041Z,103756.16
2023-02-12T03:35:00.048Z,103758.84
2023-02-12T03:37:32.525Z,103747.28
2023-02-12T03:40:09.491Z,103752.63
2023-02-12T03:42:45.967Z,103744.03
2023-02-12T03:45:24.107Z,103747.28
2023-02-12T03:48:03.858Z,103747.28
2023-02-12T03:50:38.738Z,103750.81
2023-02-12T03:53:07.618Z,103749.09
2023-02-12T03:55:40.358Z,103754.47
2023-02-12T03:58:12.490Z,103751.06
2023-02-12T04:00:41.098Z,103750.09
2023-02-12T04:03:10.860Z,103755.59
2023-02-12T04:05:38.587Z,103759.13
2023-02-12T04:08:09.904Z,103748.41
2023-02-12T04:10:47.802Z,103756.44
2023-02-12T04:13:22.505Z,103755.59
2023-02-12T04:16:08.313Z,103751.06
2023-02-12T04:18:42.478Z,103752.91
2023-02-12T04:21:19.872Z,103751.34
2023-02-12T04:24:04.470Z,103757.44
2023-02-12T04:26:38.539Z,103764.63
2023-02-12T04:29:20.499Z,103769.13
2023-02-12T04:31:52.530Z,103776.34
2023-02-12T04:34:32.865Z,103782.53
2023-02-12T04:37:06.669Z,103778.88
2023-02-12T04:39:38.856Z,103781.56
2023-02-12T04:42:06.818Z,103774.50
2023-02-12T04:44:38.410Z,103775.50
2023-02-12T04:47:06.198Z,103768.97
2023-02-12T04:49:35.302Z,103778.88
2023-02-12T04:52:03.070Z,103783.41
2023-02-12T04:54:30.785Z,103773.66
2023-02-12T04:56:58.480Z,103777.19
2023-02-12T04:59:26.208Z,103779.00
2023-02-12T05:01:54.362Z,103780.84
2023-02-12T05:04:22.171Z,103771.25
2023-02-12T05:06:51.207Z,103780.84
2023-02-12T05:09:20.942Z,103774.63
2023-02-12T05:11:48.639Z,103780.00
2023-02-12T05:14:16.451Z,103777.31
2023-02-12T05:16:44.278Z,103787.06
2023-02-12T05:19:12.295Z,103785.38
2023-02-12T05:21:40.043Z,103781.84
2023-02-12T05:24:09.541Z,103785.38
2023-02-12T05:26:37.828Z,103784.53
2023-02-12T05:29:05.609Z,103786.34
2023-02-12T05:31:33.490Z,103784.53
2023-02-12T05:34:01.251Z,103790.72
2023-02-12T05:36:29.295Z,103783.09
2023-02-12T05:38:59.773Z,103786.34
2023-02-12T05:41:29.317Z,103795.25
2023-02-12T05:43:57.051Z,103790.72
2023-02-12T05:46:24.806Z,103793.41
2023-02-12T05:48:52.519Z,103795.38
2023-02-12T05:51:22.953Z,103788.19
2023-02-12T05:53:52.537Z,103788.19
2023-02-12T05:56:22.287Z,103798.06
2023-02-12T05:58:55.206Z,103788.47
2023-02-12T06:01:26.670Z,103790.03
2023-02-12T06:03:54.789Z,103792.69
2023-02-12T06:06:22.719Z,103791.00
2023-02-12T06:08:51.070Z,103794.66
2023-02-12T06:11:19.457Z,103801.88
2023-02-12T06:13:47.342Z,103792.97
2023-02-12T06:16:21.333Z,103799.19
2023-02-12T06:18:49.912Z,103802.00
2023-02-12T06:21:18.797Z,103796.63
2023-02-12T06:23:46.810Z,103797.50
2023-02-12T06:26:14.513Z,103794.94
2023-02-12T06:28:42.249Z,103806.38
2023-02-12T06:31:20.582Z,103794.22
2023-02-12T06:33:49.044Z,103805.53
2023-02-12T06:36:17.657Z,103800.31
2023-02-12T06:38:45.659Z,103813.00
2023-02-12T06:41:13.667Z,103813.84
2023-02-12T06:43:41.607Z,103812.00
2023-02-12T06:46:10.021Z,103813.00
2023-02-12T06:48:39.157Z,103814.69
2023-02-12T06:51:08.199Z,103814.69
2023-02-12T06:53:36.536Z,103804.28
2023-02-12T06:56:06.200Z,103813.84
2023-02-12T06:58:34.154Z,103822.88
2023-02-12T07:01:12.426Z,103818.50
2023-02-12T07:03:42.152Z,103814.16
2023-02-12T07:06:11.185Z,103830.06
2023-02-12T07:08:38.962Z,103834.59
2023-02-12T07:11:07.166Z,103821.75
2023-02-12T07:13:35.650Z,103834.59
2023-02-12T07:16:07.609Z,103833.91
2023-02-12T07:18:35.929Z,103842.34
2023-02-12T07:21:06.824Z,103834.19
2023-02-12T07:23:35.695Z,103831.50
2023-02-12T07:26:05.587Z,103830.38
2023-02-12T07:28:34.477Z,103831.38
2023-02-12T07:31:07.684Z,103835.75
2023-02-12T07:33:36.023Z,103839.94
2023-02-12T07:36:06.428Z,103840.41
2023-02-12T07:38:36.157Z,103844.81
2023-02-12T07:41:13.174Z,103847.81
2023-02-12T07:43:41.244Z,103847.72
2023-02-12T07:46:11.382Z,103851.53
2023-02-12T07:48:39.323Z,103853.81
2023-02-12T07:51:11.109Z,103853.22
2023-02-12T07:53:38.993Z,103842.47
2023-02-12T07:56:08.870Z,103851.50
2023-02-12T07:58:36.600Z,103849.34
2023-02-12T08:01:16.500Z,103856.56
2023-02-12T08:03:44.314Z,103855.88
2023-02-12T08:06:15.481Z,103861.69
2023-02-12T08:08:43.547Z,103849.13
2023-02-12T08:11:13.748Z,103854.50
2023-02-12T08:13:42.280Z,103856.19
2023-02-12T08:16:12.406Z,103862.13
2023-02-12T08:18:40.363Z,103861.13
2023-02-12T08:21:09.759Z,103864.94
2023-02-12T08:23:39.412Z,103867.06
2023-02-12T08:26:09.807Z,103861.25
2023-02-12T08:28:38.779Z,103860.69
2023-02-12T08:31:10.486Z,103862.78
2023-02-12T08:33:38.383Z,103862.38
2023-02-12T08:36:09.547Z,103867.72
2023-02-12T08:38:40.061Z,103859.97
2023-02-12T08:41:09.958Z,103870.81
2023-02-12T08:43:38.070Z,103866.00
2023-02-12T08:46:07.902Z,103866.00
2023-02-12T08:48:35.830Z,103866.16
2023-02-12T08:51:08.855Z,103868.13
2023-02-12T08:53:38.810Z,103871.06
2023-02-12T08:56:07.518Z,103875.44
2023-02-12T08:58:35.711Z,103873.75
2023-02-12T09:01:04.176Z,103872.91
2023-02-12T09:03:32.400Z,103876.56
2023-02-12T09:06:03.027Z,103874.88
2023-02-12T09:08:31.549Z,103879.38
2023-02-12T09:11:00.867Z,103872.19
2023-02-12T09:13:28.577Z,103881.22
2023-02-12T09:15:56.632Z,103876.84
2023-02-12T09:18:24.481Z,103882.22
2023-02-12T09:20:52.220Z,103880.50
2023-02-12T09:23:19.913Z,103884.88
2023-02-12T09:25:48.016Z,103887.72
2023-02-12T09:28:17.286Z,103888.56
2023-02-12T09:30:45.068Z,103891.25
2023-02-12T09:33:12.994Z,103880.19
2023-02-12T09:35:40.970Z,103885.16
2023-02-12T09:38:09.860Z,103891.25
2023-02-12T09:40:44.953Z,103888.69
2023-02-12T09:43:20.990Z,103896.59
2023-02-12T09:45:57.198Z,103886.72
2023-02-12T09:48:41.845Z,103885.16
2023-02-12T09:51:11.065Z,103887.00
2023-02-12T09:53:42.683Z,103891.25
2023-02-12T09:56:14.586Z,103889.53
2023-02-12T09:58:48.620Z,103899.28
2023-02-12T10:01:19.118Z,103888.56
2023-02-12T10:03:48.886Z,103887.56
2023-02-12T10:06:20.102Z,103893.91
2023-02-12T10:09:01.987Z,103896.47
2023-02-12T10:11:41.639Z,103898.28
2023-02-12T10:14:45.295Z,103900.13
2023-02-12T10:17:22.539Z,103905.34
2023-02-12T10:20:14.208Z,103896.47
2023-02-12T10:22:56.920Z,103899.16
2023-02-12T10:25:29.640Z,103904.38
2023-02-12T10:28:02.075Z,103899.88
2023-02-12T10:30:41.699Z,103908.75
2023-02-12T10:33:17.444Z,103901.56
2023-02-12T10:35:52.924Z,103909.47
2023-02-12T10:38:25.251Z,103901.41
2023-02-12T10:40:55.247Z,103890.38
2023-02-12T10:43:22.999Z,103905.81
2023-02-12T10:45:52.433Z,103902.28
2023-02-12T10:48:23.282Z,103901.28
2023-02-12T10:51:05.051Z,103899.59
2023-02-12T10:53:34.806Z,103896.78
2023-02-12T10:56:13.263Z,103903.84
2023-02-12T10:58:42.707Z,103901.16
2023-02-12T11:01:19.083Z,103892.25
2023-02-12T11:03:46.882Z,103897.47
2023-02-12T11:06:16.823Z,103887.59
2023-02-12T11:08:45.191Z,103902.56
2023-02-12T11:11:15.693Z,103894.66
2023-02-12T11:13:48.921Z,103892.84
2023-02-12T11:16:28.714Z,103893.69
2023-02-12T11:19:00.323Z,103886.47
2023-02-12T11:21:28.152Z,103885.50
2023-02-12T11:23:55.955Z,103883.81
2023-02-12T11:26:27.227Z,103884.50
2023-02-12T11:28:57.207Z,103881.81
2023-02-12T11:31:28.470Z,103876.47
2023-02-12T11:34:15.705Z,103883.38
2023-02-12T11:36:45.540Z,103879.84
2023-02-12T11:39:24.409Z,103875.34
2023-02-12T11:41:55.805Z,103873.50
2023-02-12T11:44:27.677Z,103866.31
2023-02-12T11:47:02.132Z,103862.63
2023-02-12T11:49:33.224Z,103866.03
2023-02-12T11:52:04.338Z,103864.63
2023-02-12T11:54:38.238Z,103862.63
2023-02-12T11:57:06.033Z,103866.03
2023-02-12T11:59:37.257Z,103867.19
2023-02-12T12:02:23.363Z,103863.09
2023-02-12T12:04:55.513Z,103855.22
2023-02-12T12:07:29.401Z,103858.88
2023-02-12T12:10:01.318Z,103853.78
2023-02-12T12:12:38.750Z,103849.53
2023-02-12T12:15:34.364Z,103848.94
2023-02-12T12:18:46.090Z,103843.69
2023-02-12T12:21:21.423Z,103836.50
2023-02-12T12:23:55.830Z,103835.31
2023-02-12T12:26:26.018Z,103829.88
2023-02-12T12:29:01.133Z,103830.53
2023-02-12T12:31:33.136Z,103831.78
2023-02-12T12:34:08.293Z,103832.16
2023-02-12T12:36:58.410Z,103824.78
2023-02-12T12:39:35.144Z,103820.25
2023-02-12T12:42:28.503Z,103820.50
2023-02-12T12:45:20.792Z,103820.19
2023-02-12T12:48:02.990Z,103820.88
2023-02-12T12:50:49.850Z,103819.59
2023-02-12T12:53:29.503Z,103807.97
2023-02-12T12:56:11.707Z,103797.75
2023-02-12T12:59:01.913Z,103798.28
2023-02-12T13:01:50.990Z,103796.97
2023-02-12T13:05:01.585Z,103796.75
2023-02-12T13:07:43.143Z,103775.91
2023-02-12T13:10:20.832Z,103797.63
2023-02-12T13:13:06.290Z,103788.69
2023-02-12T13:15:39.435Z,103782.28
2023-02-12T13:18:17.057Z,103785.16
2023-02-12T13:20:52.381Z,103783.41
2023-02-12T13:23:32.030Z,103785.81
2023-02-12T13:26:08.309Z,103778.47
2023-02-12T13:28:39.683Z,103780.91
2023-02-12T13:31:32.039Z,103773.28
2023-02-12T13:34:02.649Z,103778.25
2023-02-12T13:36:30.374Z,103774.16
2023-02-12T13:39:07.979Z,103784.19
2023-02-12T13:41:36.552Z,103777.25
2023-02-12T13:44:15.720Z,103771.13
2023-02-12T13:46:52.571Z,103777.22
2023-02-12T13:49:25.268Z,103776.50
2023-02-12T13:51:58.538Z,103768.75
2023-02-12T13:54:42.634Z,103772.72
2023-02-12T13:57:15.263Z,103773.16
2023-02-12T13:59:50.395Z,103769.91
2023-02-12T14:02:42.653Z,103769.50
2023-02-12T14:05:21.670Z,103757.50
2023-02-12T14:07:52.207Z,103761.88
2023-02-12T14:10:25.219Z,103760.34
2023-02-12T14:12:54.509Z,103758.94
2023-02-12T14:15:30.853Z,103759.94
2023-02-12T14:18:07.094Z,103761.91
2023-02-12T14:20:36.499Z,103756.84
2023-02-12T14:23:28.986Z,103759.66
2023-02-12T14:26:04.219Z,103750.06
2023-02-12T14:28:47.816Z,103754.56
2023-02-12T14:31:34.502Z,103759.25
2023-02-12T14:34:49.394Z,103753.03
2023-02-12T14:37:37.759Z,103754.03
2023-02-12T14:40:44.387Z,103753.31
2023-02-12T14:43:57.764Z,103764.75
2023-02-12T14:46:50.032Z,103755.16
2023-02-12T14:49:26.040Z,103747.94
2023-02-12T14:51:59.310Z,103744.56
2023-02-12T14:54:33.597Z,103743.56
2023-02-12T14:57:05.921Z,103739.47
2023-02-12T14:59:41.071Z,103750.78
2023-02-12T15:02:15.105Z,103742.88
2023-02-12T15:04:46.806Z,103746.53
2023-02-12T15:07:21.658Z,103740.31
2023-02-12T15:09:56.995Z,103745.69
2023-02-12T15:12:32.676Z,103741.16
2023-02-12T15:15:08.733Z,103738.50
2023-02-12T15:17:41.880Z,103739.34
2023-02-12T15:20:20.509Z,103734.25
2023-02-12T15:22:48.209Z,103724.38
2023-02-12T15:25:17.324Z,103726.34
2023-02-12T15:27:47.498Z,103727.03
2023-02-12T15:30:25.961Z,103729.00
2023-02-12T15:32:56.244Z,103719.34
2023-02-12T15:35:27.644Z,103728.78
2023-02-12T15:37:56.525Z,103728.00
2023-02-12T15:40:24.906Z,103726.53
2023-02-12T15:42:56.261Z,103724.72
2023-02-12T15:45:27.636Z,103718.66
2023-02-12T15:48:06.102Z,103717.59
2023-02-12T15:50:34.830Z,103722.69
2023-02-12T15:53:04.113Z,103719.47
2023-02-12T15:55:40.813Z,103711.28
2023-02-12T15:58:19.655Z,103716.59
2023-02-12T16:00:48.959Z,103703.50
2023-02-12T16:03:24.798Z,103710.44
2023-02-12T16:05:55.485Z,103710.22
2023-02-12T16:08:24.668Z,103707.22
2023-02-12T16:10:55.436Z,103719.69
2023-02-12T16:13:31.323Z,103718.00
2023-02-12T16:16:08.925Z,103720.06
2023-02-12T16:18:36.727Z,103722.13
2023-02-12T16:21:07.239Z,103712.41
2023-02-12T16:23:36.337Z,103710.22
2023-02-12T16:26:04.637Z,103712.50
2023-02-12T16:28:33.333Z,103720.16
2023-02-12T16:31:14.231Z,103722.47
2023-02-12T16:33:48.727Z,103718.66
2023-02-12T16:36:30.435Z,103718.94
2023-02-12T16:38:59.584Z,103713.88
2023-02-12T16:41:30.921Z,103713.31
2023-02-12T16:44:29.399Z,103709.09
2023-02-12T16:47:00.679Z,103720.13
2023-02-12T16:49:28.581Z,103708.69
2023-02-12T16:52:20.395Z,103701.91
2023-02-12T16:54:48.070Z,103709.28
2023-02-12T16:57:15.777Z,103707.56
2023-02-12T16:59:45.236Z,103712.25
2023-02-12T17:02:15.784Z,103716.06
2023-02-12T17:04:43.995Z,103714.38
2023-02-12T17:07:19.878Z,103715.38
2023-02-12T17:09:47.640Z,103718.22
2023-02-12T17:12:15.716Z,103720.91
2023-02-12T17:14:43.433Z,103723.88
2023-02-12T17:17:11.172Z,103714.13
2023-02-12T17:19:40.402Z,103708.91
2023-02-12T17:22:09.335Z,103716.81
2023-02-12T17:24:37.058Z,103715.25
2023-02-12T17:27:05.113Z,103715.41
2023-02-12T17:29:32.862Z,103719.78
2023-02-12T17:32:00.883Z,103703.25
2023-02-12T17:34:34.090Z,103718.38
2023-02-12T17:37:08.874Z,103721.63
2023-02-12T17:39:36.603Z,103727.84
2023-02-12T17:42:06.559Z,103735.06
2023-02-12T17:44:34.387Z,103728.84
2023-02-12T17:47:02.123Z,103736.91
2023-02-12T17:49:31.612Z,103727.16
2023-02-12T17:51:59.314Z,103728.00
2023-02-12T17:54:28.717Z,103735.19
2023-02-12T17:56:56.403Z,103725.44
2023-02-12T17:59:24.169Z,103737.34
2023-02-12T18:01:51.920Z,103727.56
2023-02-12T18:04:20.155Z,103734.09
2023-02-12T18:06:48.319Z,103726.88
2023-02-12T18:09:17.013Z,103730.97
2023-02-12T18:11:46.108Z,103734.22
2023-02-12T18:14:13.795Z,103724.16
2023-02-12T18:16:41.649Z,103724.88
2023-02-12T18:19:09.328Z,103723.88
2023-02-12T18:21:37.115Z,103721.34
2023-02-12T18:24:05.473Z,103724.88
2023-02-12T18:26:34.262Z,103720.34
2023-02-12T18:29:03.380Z,103722.19
2023-02-12T18:31:31.379Z,103720.50
2023-02-12T18:33:59.185Z,103720.50
2023-02-12T18:36:26.902Z,103727.25
2023-02-12T18:38:54.768Z,103724.44
2023-02-12T18:41:24.631Z,103727.97
2023-02-12T18:43:52.969Z,103733.34
2023-02-12T18:46:24.348Z,103729.81
2023-02-12T18:48:52.912Z,103724.44
2023-02-12T18:51:22.978Z,103727.13
2023-02-12T18:53:56.274Z,103721.03
2023-02-12T18:56:24.322Z,103717.38
2023-02-12T18:58:57.123Z,103721.88
2023-02-12T19:01:27.450Z,103713.13
2023-02-12T19:03:56.400Z,103708.06
2023-02-12T19:06:24.673Z,103708.91
2023-02-12T19:08:55.477Z,103709.88
2023-02-12T19:11:23.378Z,103710.72
2023-02-12T19:13:51.104Z,103704.53
2023-02-12T19:16:21.249Z,103691.69
2023-02-12T19:18:51.650Z,103710.03
2023-02-12T19:21:19.778Z,103716.25
2023-02-12T19:23:47.565Z,103717.25
2023-02-12T19:26:17.458Z,103719.09
2023-02-12T19:28:45.304Z,103714.72
2023-02-12T19:31:15.627Z,103714.72
2023-02-12T19:33:44.752Z,103717.53
2023-02-12T19:36:16.363Z,103719.38
2023-02-12T19:38:46.718Z,103720.22
2023-02-12T19:41:16.645Z,103714.00
2023-02-12T19:43:44.914Z,103709.63
2023-02-12T19:46:14.916Z,103660.53
2023-02-12T19:48:42.757Z,103707.09
2023-02-12T19:51:15.520Z,103723.19
2023-02-12T19:53:43.591Z,103718.81
2023-02-12T19:56:11.332Z,103720.66
2023-02-12T19:58:39.496Z,103725.19
2023-02-12T20:01:10.379Z,103710.91
2023-02-12T20:03:38.502Z,103705.53
2023-02-12T20:06:09.680Z,103712.91
2023-02-12T20:08:39.524Z,103706.53
2023-02-12T20:11:07.891Z,103711.91
2023-02-12T20:13:36.090Z,103719.25
2023-02-12T20:16:04.690Z,103719.25
2023-02-12T20:18:32.535Z,103712.19
2023-02-12T20:21:00.824Z,103714.88
2023-02-12T20:23:28.622Z,103712.34
2023-02-12T20:25:57.649Z,103711.50
2023-02-12T20:28:25.571Z,103713.34
2023-02-12T20:30:53.423Z,103701.88
2023-02-12T20:33:21.177Z,103699.06
2023-02-12T20:35:56.052Z,103701.03
2023-02-12T20:38:23.844Z,103701.19
2023-02-12T20:40:51.589Z,103691.19
2023-02-12T20:43:20.708Z,103709.38
2023-02-12T20:45:48.409Z,103704.88
2023-02-12T20:48:16.159Z,103705.00
2023-02-12T20:50:43.893Z,103705.84
2023-02-12T20:53:11.566Z,103711.22
2023-02-12T20:55:39.276Z,103715.75
2023-02-12T20:58:07.000Z,103708.69
2023-02-12T21:00:36.163Z,103707.00
2023-02-12T21:03:04.646Z,103703.47
2023-02-12T21:05:32.930Z,103705.28
2023-02-12T21:08:00.639Z,103698.09
2023-02-12T21:10:29.686Z,103701.91
2023-02-12T21:12:57.518Z,103706.28
2023-02-12T21:15:25.262Z,103697.38
2023-02-12T21:17:54.385Z,103703.75
2023-02-12T21:20:22.074Z,103697.53
2023-02-12T21:22:49.796Z,103700.38
2023-02-12T21:25:17.542Z,103695.00
2023-02-12T21:27:45.355Z,103693.31
2023-02-12T21:30:13.368Z,103699.50
2023-02-12T21:32:41.180Z,103697.69
2023-02-12T21:35:10.475Z,103694.16
2023-02-12T21:37:38.204Z,103691.59
2023-02-12T21:40:07.602Z,103689.78
2023-02-12T21:42:35.370Z,103697.97
2023-02-12T21:45:03.068Z,103692.59
2023-02-12T21:47:31.088Z,103693.44
2023-02-12T21:49:58.771Z,103693.44
2023-02-12T21:52:27.857Z,103698.97
2023-02-12T21:54:57.075Z,103692.75
2023-02-12T21:57:24.871Z,103693.72
2023-02-12T21:59:52.588Z,103693.72
2023-02-12T22:02:20.367Z,103699.94
2023-02-12T22:04:49.150Z,103692.03
2023-02-12T22:07:16.923Z,103700.09
2023-02-12T22:09:46.000Z,103695.72
2023-02-12T22:12:13.815Z,103695.72
2023-02-12T22:14:41.553Z,103694.88
2023-02-12T22:17:09.304Z,103694.03
2023-02-12T22:19:37.009Z,103695.84
2023-02-12T22:22:04.764Z,103694.88
2023-02-12T22:24:32.516Z,103689.66
2023-02-12T22:27:01.543Z,103704.06
2023-02-12T22:29:29.279Z,103691.63
2023-02-12T22:31:57.101Z,103688.94
2023-02-12T22:34:24.892Z,103689.78
2023-02-12T22:36:52.589Z,103688.25
2023-02-12T22:39:21.307Z,103687.41
2023-02-12T22:41:49.296Z,103682.31
2023-02-12T22:44:21.124Z,103692.19
2023-02-12T22:46:49.816Z,103687.81
2023-02-12T22:49:17.532Z,103692.19
2023-02-12T22:51:45.461Z,103694.03
2023-02-12T22:54:15.103Z,103684.28
2023-02-12T22:56:43.653Z,103681.75
2023-02-12T22:59:12.638Z,103678.22
2023-02-12T23:01:41.936Z,103680.06
2023-02-12T23:04:15.295Z,103676.53
2023-02-12T23:06:43.687Z,103676.69
2023-02-12T23:09:14.036Z,103675.81
2023-02-12T23:11:41.917Z,103677.66
2023-02-12T23:14:09.703Z,103674.13
2023-02-12T23:16:37.599Z,103673.28
2023-02-12T23:19:06.817Z,103673.44
2023-02-12T23:21:34.916Z,103666.50
2023-02-12T23:24:02.652Z,103670.88
2023-02-12T23:26:30.744Z,103670.88
2023-02-12T23:28:59.146Z,103660.16
2023-02-12T23:31:27.117Z,103670.03
2023-02-12T23:33:54.910Z,103669.34
2023-02-12T23:36:23.981Z,103669.34
2023-02-12T23:38:51.696Z,103658.75
2023-02-12T23:41:19.426Z,103662.41
2023-02-12T23:43:47.157Z,103638.16
2023-02-12T23:46:14.992Z,103657.91
2023-02-12T23:48:44.481Z,103646.63
2023-02-12T23:51:12.302Z,103644.63
2023-02-12T23:53:41.438Z,103649.16
2023-02-12T23:56:09.142Z,103648.31
2023-02-12T23:58:36.913Z,103650.28
